createdAt,value
2019-04-28T00:01:51.276Z,5.50
2019-04-28T00:04:21.463Z,5.00
2019-04-28T00:06:51.769Z,5.03
2019-04-28T00:09:23.175Z,5.47
2019-04-28T00:11:52.972Z,5.17
2019-04-28T00:14:23.080Z,5.90
2019-04-28T00:16:52.675Z,5.80
2019-04-28T00:19:23.971Z,5.87
2019-04-28T00:21:55.220Z,5.80
2019-04-28T00:24:27.466Z,5.37
2019-04-28T00:27:01.892Z,5.00
2019-04-28T00:29:38.500Z,6.00
2019-04-28T00:32:03.218Z,6.00
2019-04-28T00:34:32.808Z,4.97
2019-04-28T00:37:04.052Z,4.83
2019-04-28T00:39:33.628Z,4.40
2019-04-28T00:42:03.464Z,4.47
2019-04-28T00:44:33.003Z,4.00
2019-04-28T00:47:02.631Z,4.60
2019-04-28T00:49:47.555Z,5.70
2019-04-28T00:52:19.442Z,4.30
2019-04-28T00:54:50.164Z,4.70
2019-04-28T00:57:21.065Z,5.27
2019-04-28T00:59:57.968Z,3.30
2019-04-28T01:02:34.514Z,4.60
2019-04-28T01:05:05.328Z,3.13
2019-04-28T01:07:34.898Z,3.37
2019-04-28T01:10:05.504Z,3.77
2019-04-28T01:12:35.349Z,4.07
2019-04-28T01:15:07.540Z,3.70
2019-04-28T01:17:39.753Z,4.30
2019-04-28T01:20:13.899Z,4.73
2019-04-28T01:22:43.431Z,2.83
2019-04-28T01:25:13.166Z,3.80
2019-04-28T01:27:54.676Z,2.83
2019-04-28T01:30:45.376Z,4.83
2019-04-28T01:33:25.402Z,4.30
2019-04-28T01:35:56.453Z,3.60
2019-04-28T01:38:26.129Z,5.77
2019-04-28T01:40:55.815Z,3.87
2019-04-28T01:43:25.428Z,4.10
2019-04-28T01:45:54.900Z,4.50
2019-04-28T01:48:31.515Z,4.97
2019-04-28T01:51:01.282Z,5.37
2019-04-28T01:53:31.142Z,4.90
2019-04-28T01:56:00.678Z,4.23
2019-04-28T01:58:30.153Z,4.17
2019-04-28T02:00:59.756Z,4.20
2019-04-28T02:03:30.735Z,3.83
2019-04-28T02:06:00.500Z,3.83
2019-04-28T02:08:30.453Z,3.80
2019-04-28T02:11:00.265Z,3.97
2019-04-28T02:13:30.033Z,4.00
2019-04-28T02:16:00.192Z,4.20
2019-04-28T02:18:30.086Z,3.90
2019-04-28T02:21:01.439Z,4.50
2019-04-28T02:23:32.629Z,5.07
2019-04-28T02:26:02.133Z,5.23
2019-04-28T02:28:31.633Z,4.43
2019-04-28T02:31:02.262Z,5.77
2019-04-28T02:33:32.062Z,4.37
2019-04-28T02:36:16.151Z,4.30
2019-04-28T02:39:01.395Z,3.90
2019-04-28T02:41:33.993Z,3.63
2019-04-28T02:44:03.475Z,4.23
2019-04-28T02:46:33.081Z,4.17
2019-04-28T02:49:07.003Z,3.70
2019-04-28T02:51:41.764Z,5.30
2019-04-28T02:54:30.496Z,4.90
2019-04-28T02:57:11.585Z,3.90
2019-04-28T02:59:44.843Z,4.23
2019-04-28T03:02:15.621Z,4.50
2019-04-28T03:04:45.261Z,4.10
2019-04-28T03:07:33.256Z,4.53
2019-04-28T03:10:03.788Z,4.30
2019-04-28T03:12:41.683Z,4.80
2019-04-28T03:15:11.810Z,4.23
2019-04-28T03:17:41.526Z,4.27
2019-04-28T03:20:11.241Z,3.70
2019-04-28T03:22:41.195Z,4.47
2019-04-28T03:25:12.521Z,3.70
2019-04-28T03:27:44.502Z,3.53
2019-04-28T03:30:35.144Z,3.63
2019-04-28T03:33:13.033Z,3.97
2019-04-28T03:35:37.821Z,4.40
2019-04-28T03:38:07.468Z,4.30
2019-04-28T03:40:37.163Z,3.93
2019-04-28T03:43:06.641Z,3.80
2019-04-28T03:45:44.120Z,4.80
2019-04-28T03:48:13.826Z,4.70
2019-04-28T03:50:43.373Z,3.90
2019-04-28T03:53:20.712Z,4.97
2019-04-28T03:55:45.931Z,3.50
2019-04-28T03:58:17.047Z,3.47
2019-04-28T04:00:50.434Z,3.43
2019-04-28T04:03:21.159Z,4.43
2019-04-28T04:05:51.212Z,4.87
2019-04-28T04:08:21.204Z,4.53
2019-04-28T04:11:07.261Z,3.53
2019-04-28T04:13:41.268Z,3.83
2019-04-28T04:16:30.854Z,4.47
2019-04-28T04:19:02.248Z,4.37
2019-04-28T04:21:31.797Z,3.20
2019-04-28T04:24:01.330Z,4.13
2019-04-28T04:26:33.519Z,3.77
2019-04-28T04:29:06.261Z,4.93
2019-04-28T04:31:37.351Z,3.67
2019-04-28T04:34:06.852Z,3.90
2019-04-28T04:37:00.727Z,5.33
2019-04-28T04:39:21.325Z,4.57
2019-04-28T04:42:00.476Z,4.03
2019-04-28T04:44:32.210Z,3.33
2019-04-28T04:47:05.324Z,3.77
2019-04-28T04:49:37.295Z,5.50
2019-04-28T04:52:06.803Z,3.43
2019-04-28T04:54:36.840Z,4.47
2019-04-28T04:57:11.080Z,4.90
2019-04-28T04:59:40.787Z,3.90
2019-04-28T05:02:26.621Z,4.10
2019-04-28T05:04:46.532Z,3.40
2019-04-28T05:07:16.083Z,3.80
2019-04-28T05:09:45.592Z,4.27
2019-04-28T05:12:19.659Z,4.20
2019-04-28T05:14:51.264Z,5.17
2019-04-28T05:17:22.269Z,3.90
2019-04-28T05:19:51.916Z,5.03
2019-04-28T05:22:23.056Z,4.50
2019-04-28T05:24:54.567Z,5.00
2019-04-28T05:27:25.742Z,4.93
2019-04-28T05:29:57.020Z,4.17
2019-04-28T05:32:39.385Z,4.60
2019-04-28T05:35:00.074Z,4.37
2019-04-28T05:37:30.896Z,4.10
2019-04-28T05:40:00.971Z,4.53
2019-04-28T05:42:34.912Z,3.60
2019-04-28T05:45:06.240Z,4.50
2019-04-28T05:47:35.765Z,4.50
2019-04-28T05:50:07.842Z,4.03
2019-04-28T05:52:40.322Z,4.13
2019-04-28T05:55:10.194Z,4.40
2019-04-28T05:57:41.542Z,4.10
2019-04-28T06:00:37.345Z,4.53
2019-04-28T06:03:09.723Z,3.60
2019-04-28T06:05:39.711Z,5.67
2019-04-28T06:08:10.012Z,5.53
2019-04-28T06:10:39.994Z,4.50
2019-04-28T06:13:10.015Z,4.70
2019-04-28T06:15:39.816Z,5.43
2019-04-28T06:18:10.461Z,4.60
2019-04-28T06:20:41.839Z,5.73
2019-04-28T06:23:16.274Z,5.37
2019-04-28T06:25:42.734Z,4.93
2019-04-28T06:28:12.512Z,4.83
2019-04-28T06:30:43.117Z,4.80
2019-04-28T06:33:12.684Z,4.53
2019-04-28T06:35:51.428Z,5.23
2019-04-28T06:38:21.013Z,4.70
2019-04-28T06:41:02.350Z,4.60
2019-04-28T06:43:39.765Z,4.40
2019-04-28T06:46:09.491Z,4.70
2019-04-28T06:48:46.339Z,4.63
2019-04-28T06:51:17.400Z,4.77
2019-04-28T06:53:55.740Z,5.23
2019-04-28T06:56:42.455Z,5.40
2019-04-28T06:59:24.282Z,5.03
2019-04-28T07:01:44.974Z,6.23
2019-04-28T07:04:14.582Z,5.87
2019-04-28T07:06:44.119Z,5.20
2019-04-28T07:09:13.775Z,4.90
2019-04-28T07:11:43.387Z,6.10
2019-04-28T07:14:18.761Z,5.80
2019-04-28T07:16:48.398Z,5.77
2019-04-28T07:19:35.689Z,6.53
2019-04-28T07:22:04.264Z,5.47
2019-04-28T07:24:49.141Z,7.00
2019-04-28T07:27:17.459Z,6.93
2019-04-28T07:29:47.006Z,6.37
2019-04-28T07:32:25.145Z,6.60
2019-04-28T07:34:54.805Z,6.53
2019-04-28T07:37:24.640Z,6.30
2019-04-28T07:40:03.061Z,6.40
2019-04-28T07:42:37.316Z,6.60
2019-04-28T07:45:07.471Z,6.03
2019-04-28T07:47:37.076Z,5.93
2019-04-28T07:50:28.385Z,7.47
2019-04-28T07:53:43.187Z,9.73
2019-04-28T07:56:13.385Z,5.13
2019-04-28T07:59:06.561Z,4.50
2019-04-28T08:02:01.208Z,3.90
2019-04-28T08:04:35.284Z,3.23
2019-04-28T08:07:11.894Z,3.00
2019-04-28T08:10:13.407Z,2.80
2019-04-28T08:13:15.437Z,3.43
2019-04-28T08:16:33.832Z,3.03
2019-04-28T08:22:20.595Z,2.80
2019-04-28T08:24:50.590Z,3.00
2019-04-28T08:27:20.288Z,2.60
2019-04-28T08:36:29.747Z,3.00
2019-04-28T08:39:38.843Z,3.40
2019-04-28T08:42:15.775Z,3.50
2019-04-28T08:45:17.187Z,3.83
2019-04-28T08:48:18.951Z,3.77
2019-04-28T08:50:51.291Z,3.30
2019-04-28T08:53:55.034Z,3.67
2019-04-28T08:56:44.611Z,4.00
2019-04-28T08:59:21.464Z,4.30
2019-04-28T09:01:58.406Z,3.70
2019-04-28T09:04:25.358Z,3.50
2019-04-28T09:10:13.734Z,3.40
2019-04-28T09:12:44.732Z,4.07
2019-04-28T09:15:14.518Z,4.33
2019-04-28T09:17:44.367Z,4.50
2019-04-28T09:20:15.751Z,5.50
2019-04-28T09:25:40.257Z,5.43
2019-04-28T09:28:08.367Z,4.90
2019-04-28T09:30:44.691Z,7.07
2019-04-28T09:33:27.502Z,5.60
2019-04-28T09:35:57.062Z,5.83
2019-04-28T09:38:28.201Z,5.80
2019-04-28T09:41:19.610Z,6.53
2019-04-28T09:47:02.520Z,6.10
2019-04-28T09:49:41.720Z,7.40
2019-04-28T09:52:18.362Z,5.93
2019-04-28T09:54:47.888Z,7.27
2019-04-28T09:57:17.560Z,5.87
2019-04-28T09:59:47.112Z,6.87
2019-04-28T10:02:16.763Z,6.83
2019-04-28T10:04:47.889Z,6.10
2019-04-28T10:07:17.521Z,6.47
2019-04-28T10:10:00.480Z,7.03
2019-04-28T10:12:34.152Z,6.10
2019-04-28T10:15:07.111Z,7.20
2019-04-28T10:17:36.819Z,8.00
2019-04-28T10:20:29.967Z,8.20
2019-04-28T10:23:01.147Z,8.40
2019-04-28T10:25:39.502Z,8.10
2019-04-28T10:28:14.631Z,7.07
2019-04-28T10:30:42.052Z,6.10
2019-04-28T10:33:11.539Z,6.47
2019-04-28T10:35:51.320Z,6.60
2019-04-28T10:41:35.989Z,5.73
2019-04-28T10:44:08.423Z,6.07
2019-04-28T10:46:37.110Z,5.80
2019-04-28T10:49:06.796Z,4.50
2019-04-28T10:58:46.510Z,4.37
2019-04-28T11:04:37.576Z,4.30
2019-04-28T11:07:28.817Z,4.70
2019-04-28T11:10:48.243Z,4.40
2019-04-28T11:13:30.382Z,4.10
2019-04-28T11:16:46.256Z,4.60
2019-04-28T11:19:16.040Z,6.53
2019-04-28T11:21:45.708Z,4.60
2019-04-28T11:24:15.448Z,6.80
2019-04-28T11:27:03.991Z,4.20
2019-04-28T11:29:40.340Z,10.53
2019-04-28T11:32:26.290Z,3.97
2019-04-28T11:37:58.830Z,4.00
2019-04-28T11:40:42.141Z,4.13
2019-04-28T11:43:46.009Z,4.23
2019-04-28T11:49:20.627Z,4.47
2019-04-28T11:51:57.261Z,3.80
2019-04-28T11:55:45.089Z,4.50
2019-04-28T12:05:16.251Z,2.10
2019-04-28T12:10:40.357Z,2.10
2019-04-28T12:13:17.074Z,2.70
2019-04-28T12:16:27.126Z,2.20
2019-04-28T12:19:29.222Z,2.13
2019-04-28T12:22:07.920Z,2.20
2019-04-28T12:25:04.173Z,1.87
2019-04-28T12:27:33.914Z,1.73
2019-04-28T12:30:14.914Z,1.60
2019-04-28T12:32:44.573Z,1.40
2019-04-28T12:35:26.007Z,1.97
2019-04-28T12:38:15.616Z,2.00
2019-04-28T12:41:06.640Z,1.93
2019-04-28T12:44:14.250Z,1.90
2019-04-28T12:47:45.078Z,2.10
2019-04-28T12:50:18.266Z,2.00
2019-04-28T12:52:48.022Z,2.87
2019-04-28T12:55:40.899Z,3.47
2019-04-28T12:58:47.329Z,3.57
2019-04-28T13:01:59.779Z,2.10
2019-04-28T13:04:55.373Z,2.43
2019-04-28T13:07:55.610Z,2.63
2019-04-28T13:10:55.116Z,3.00
2019-04-28T13:13:12.750Z,5.00
2019-04-28T13:15:42.255Z,2.30
2019-04-28T13:18:12.209Z,2.20
2019-04-28T13:20:41.934Z,2.60
2019-04-28T13:23:11.738Z,1.60
2019-04-28T13:25:41.267Z,1.80
2019-04-28T13:28:18.727Z,4.67
2019-04-28T13:30:48.770Z,3.47
2019-04-28T13:33:18.617Z,1.90
2019-04-28T13:35:52.732Z,3.10
2019-04-28T13:38:32.774Z,1.40
2019-04-28T13:41:06.732Z,2.03
2019-04-28T13:43:48.419Z,3.47
2019-04-28T13:46:07.653Z,1.40
2019-04-28T13:48:39.650Z,1.80
2019-04-28T13:51:11.080Z,1.70
2019-04-28T13:53:42.296Z,1.43
2019-04-28T13:56:11.950Z,2.40
2019-04-28T14:04:48.026Z,1.23
2019-04-28T14:07:26.393Z,1.50
2019-04-28T14:10:00.589Z,1.53
2019-04-28T14:12:33.360Z,1.90
2019-04-28T14:15:10.915Z,2.00
2019-04-28T14:17:50.447Z,1.40
2019-04-28T14:20:25.872Z,1.43
2019-04-28T14:25:58.011Z,1.50
2019-04-28T14:28:40.681Z,1.70
2019-04-28T14:31:09.084Z,1.73
2019-04-28T14:33:38.910Z,1.80
2019-04-28T14:36:08.526Z,1.30
2019-04-28T14:38:55.777Z,1.57
2019-04-28T14:41:41.463Z,1.60
2019-04-28T14:44:20.651Z,1.50
2019-04-28T14:47:12.197Z,1.90
2019-04-28T14:49:53.345Z,1.53
2019-04-28T14:52:31.493Z,1.50
2019-04-28T14:55:09.057Z,2.40
2019-04-28T14:57:48.640Z,1.50
2019-04-28T15:00:35.397Z,2.10
2019-04-28T15:03:17.755Z,1.77
2019-04-28T15:06:30.080Z,2.30
2019-04-28T15:08:55.219Z,1.50
2019-04-28T15:11:29.471Z,1.63
2019-04-28T15:13:59.098Z,1.60
2019-04-28T15:16:28.726Z,2.07
2019-04-28T15:19:00.681Z,2.03
2019-04-28T15:21:30.625Z,1.40
2019-04-28T15:24:00.128Z,1.40
2019-04-28T15:26:29.826Z,1.17
2019-04-28T15:28:59.357Z,1.40
2019-04-28T15:31:28.900Z,1.30
2019-04-28T15:33:58.677Z,1.50
2019-04-28T15:36:28.272Z,1.73
2019-04-28T15:38:57.840Z,1.27
2019-04-28T15:41:27.544Z,1.70
2019-04-28T15:43:57.209Z,1.30
2019-04-28T15:46:26.803Z,1.30
2019-04-28T15:48:56.490Z,1.80
2019-04-28T15:51:25.981Z,1.97
2019-04-28T15:53:55.828Z,1.37
2019-04-28T15:56:29.538Z,1.33
2019-04-28T15:58:59.191Z,1.60
2019-04-28T16:01:28.822Z,1.50
2019-04-28T16:03:58.341Z,1.10
2019-04-28T16:06:28.170Z,1.50
2019-04-28T16:08:57.720Z,1.50
2019-04-28T16:11:29.076Z,1.70
2019-04-28T16:13:58.796Z,1.97
2019-04-28T16:16:28.421Z,1.60
2019-04-28T16:18:58.036Z,1.00
2019-04-28T16:21:27.528Z,1.10
2019-04-28T16:23:57.145Z,1.40
2019-04-28T16:26:26.791Z,1.60
2019-04-28T16:28:56.367Z,1.57
2019-04-28T16:31:25.888Z,1.17
2019-04-28T16:33:55.567Z,1.50
2019-04-28T16:36:25.125Z,1.93
2019-04-28T16:38:54.775Z,2.03
2019-04-28T16:41:29.828Z,1.80
2019-04-28T16:44:00.740Z,1.90
2019-04-28T16:46:30.250Z,1.47
2019-04-28T16:48:59.943Z,1.60
2019-04-28T16:51:29.515Z,1.50
2019-04-28T16:53:59.028Z,2.40
2019-04-28T16:56:33.651Z,1.90
2019-04-28T16:59:18.231Z,2.50
2019-04-28T17:01:49.458Z,3.00
2019-04-28T17:04:19.051Z,2.60
2019-04-28T17:06:48.697Z,3.00
2019-04-28T17:09:19.365Z,2.90
2019-04-28T17:11:48.924Z,1.70
2019-04-28T17:14:20.350Z,1.90
2019-04-28T17:16:50.234Z,1.80
2019-04-28T17:19:19.947Z,2.60
2019-04-28T17:21:49.703Z,1.80
2019-04-28T17:24:20.885Z,2.00
2019-04-28T17:26:50.389Z,2.07
2019-04-28T17:29:20.015Z,1.63
2019-04-28T17:31:49.948Z,1.70
2019-04-28T17:34:19.593Z,1.60
2019-04-28T17:36:49.309Z,1.60
2019-04-28T17:39:23.038Z,1.50
2019-04-28T17:41:52.947Z,1.33
2019-04-28T17:44:22.609Z,2.03
2019-04-28T17:46:52.439Z,1.63
2019-04-28T17:49:23.821Z,2.60
2019-04-28T17:51:53.697Z,1.70
2019-04-28T17:54:23.204Z,1.67
2019-04-28T17:56:53.002Z,1.90
2019-04-28T17:59:22.779Z,2.20
2019-04-28T18:02:01.375Z,2.13
2019-04-28T18:04:38.662Z,1.87
2019-04-28T18:07:09.971Z,3.60
2019-04-28T18:09:39.526Z,1.80
2019-04-28T18:12:09.323Z,3.00
2019-04-28T18:14:40.886Z,1.30
2019-04-28T18:17:19.510Z,1.77
2019-04-28T18:19:50.771Z,3.00
2019-04-28T18:22:20.416Z,3.13
2019-04-28T18:24:49.919Z,2.63
2019-04-28T18:27:19.722Z,3.40
2019-04-28T18:29:49.234Z,2.97
2019-04-28T18:32:36.527Z,3.23
2019-04-28T18:35:14.500Z,3.20
2019-04-28T18:38:02.586Z,4.20
2019-04-28T18:40:36.368Z,3.40
2019-04-28T18:43:14.639Z,3.40
2019-04-28T18:45:44.407Z,3.93
2019-04-28T18:48:14.367Z,4.17
2019-04-28T18:50:44.251Z,4.20
2019-04-28T18:53:14.293Z,3.67
2019-04-28T18:55:44.139Z,4.17
2019-04-28T18:58:14.036Z,4.10
2019-04-28T19:00:45.516Z,4.00
2019-04-28T19:03:15.366Z,4.40
2019-04-28T19:05:49.545Z,4.47
2019-04-28T19:08:20.753Z,4.60
2019-04-28T19:10:50.629Z,4.50
2019-04-28T19:13:22.098Z,4.67
2019-04-28T19:15:57.784Z,4.70
2019-04-28T19:18:41.252Z,5.20
2019-04-28T19:21:12.612Z,5.13
2019-04-28T19:23:42.167Z,4.90
2019-04-28T19:26:12.320Z,4.97
2019-04-28T19:28:41.914Z,4.77
2019-04-28T19:31:14.255Z,5.10
2019-04-28T19:33:44.032Z,4.50
2019-04-28T19:36:13.772Z,4.97
2019-04-28T19:38:43.816Z,5.63
2019-04-28T19:41:13.428Z,5.43
2019-04-28T19:43:43.195Z,4.90
2019-04-28T19:46:14.428Z,5.60
2019-04-28T19:48:44.089Z,4.83
2019-04-28T19:51:13.642Z,5.70
2019-04-28T19:53:43.226Z,5.70
2019-04-28T19:56:17.360Z,5.87
2019-04-28T19:58:57.512Z,6.20
2019-04-28T20:01:28.815Z,6.20
2019-04-28T20:03:58.413Z,7.80
2019-04-28T20:06:28.075Z,6.90
2019-04-28T20:08:57.915Z,7.10
2019-04-28T20:11:27.529Z,7.90
2019-04-28T20:13:57.287Z,7.57
2019-04-28T20:16:27.002Z,6.80
2019-04-28T20:18:56.508Z,6.17
2019-04-28T20:21:26.038Z,6.57
2019-04-28T20:23:55.617Z,6.73
2019-04-28T20:26:25.238Z,6.63
2019-04-28T20:28:54.733Z,7.00
2019-04-28T20:31:24.341Z,7.83
2019-04-28T20:33:53.877Z,6.63
2019-04-28T20:36:28.171Z,6.80
2019-04-28T20:39:15.732Z,6.97
2019-04-28T20:41:45.521Z,6.70
2019-04-28T20:44:14.982Z,7.07
2019-04-28T20:46:44.495Z,7.40
2019-04-28T20:49:14.011Z,6.67
2019-04-28T20:51:43.643Z,6.70
2019-04-28T20:54:13.461Z,7.07
2019-04-28T20:56:42.995Z,6.63
2019-04-28T20:59:12.826Z,5.80
2019-04-28T21:01:42.860Z,6.83
2019-04-28T21:04:12.360Z,6.97
2019-04-28T21:06:42.040Z,8.07
2019-04-28T21:09:11.539Z,7.30
2019-04-28T21:11:41.075Z,8.63
2019-04-28T21:14:10.585Z,7.03
2019-04-28T21:16:40.142Z,9.17
2019-04-28T21:19:09.851Z,7.63
2019-04-28T21:21:39.588Z,6.80
2019-04-28T21:24:09.464Z,6.47
2019-04-28T21:26:38.940Z,6.57
2019-04-28T21:29:08.497Z,7.40
2019-04-28T21:31:38.044Z,7.03
2019-04-28T21:34:07.577Z,7.40
2019-04-28T21:36:37.059Z,7.33
2019-04-28T21:39:09.507Z,7.90
2019-04-28T21:41:39.071Z,7.43
2019-04-28T21:44:16.128Z,6.87
2019-04-28T21:46:47.278Z,7.50
2019-04-28T21:49:21.207Z,7.93
2019-04-28T21:51:50.690Z,7.50
2019-04-28T21:54:20.233Z,8.43
2019-04-28T21:56:49.978Z,10.77
2019-04-28T21:59:19.793Z,10.80
2019-04-28T22:01:49.767Z,10.23
2019-04-28T22:04:19.444Z,11.47
2019-04-28T22:06:48.981Z,11.30
2019-04-28T22:09:18.794Z,10.50
2019-04-28T22:11:48.294Z,10.80
2019-04-28T22:14:17.826Z,11.63
2019-04-28T22:16:47.326Z,10.67
2019-04-28T22:19:17.045Z,10.73
2019-04-28T22:21:46.526Z,12.00
2019-04-28T22:24:20.395Z,10.90
2019-04-28T22:26:51.582Z,11.40
2019-04-28T22:29:21.380Z,11.70
2019-04-28T22:31:51.017Z,11.00
2019-04-28T22:34:20.787Z,10.40
2019-04-28T22:36:50.424Z,10.17
2019-04-28T22:39:20.012Z,9.00
2019-04-28T22:41:49.648Z,9.53
2019-04-28T22:44:19.193Z,8.53
2019-04-28T22:46:48.758Z,9.13
2019-04-28T22:49:18.531Z,9.77
2019-04-28T22:51:48.152Z,10.07
2019-04-28T22:54:21.953Z,10.33
2019-04-28T22:56:55.624Z,9.47
2019-04-28T22:59:26.757Z,9.60
2019-04-28T23:02:01.687Z,10.20
2019-04-28T23:04:32.912Z,11.17
2019-04-28T23:07:02.586Z,8.50
2019-04-28T23:09:32.220Z,9.37
2019-04-28T23:12:01.755Z,9.53
2019-04-28T23:14:31.322Z,9.70
2019-04-28T23:17:01.403Z,10.03
2019-04-28T23:19:32.639Z,7.97
2019-04-28T23:22:03.935Z,9.27
2019-04-28T23:24:33.495Z,9.30
2019-04-28T23:27:03.148Z,8.47
2019-04-28T23:29:32.696Z,8.57
2019-04-28T23:32:02.281Z,9.30
2019-04-28T23:34:31.885Z,8.80
2019-04-28T23:37:01.469Z,9.53
2019-04-28T23:39:31.299Z,9.50
2019-04-28T23:42:05.636Z,9.17
2019-04-28T23:44:35.200Z,8.20
2019-04-28T23:47:06.654Z,9.60
2019-04-28T23:49:36.399Z,8.17
2019-04-28T23:52:23.898Z,9.03
2019-04-28T23:54:55.024Z,8.90
2019-04-28T23:57:24.534Z,8.63
2019-04-28T23:59:54.082Z,9.80
